Friday, August 29, 2014, 3:59 AM EDT
Back to Local

KMTP, Montauk Airport

Location: Montauk, NY, United States Lat: 41.067
Local Time: 3:59 AM EDT ( 7:59 GMT) Lon: -71.917
Time Zone: US/Eastern Elev: 6 ft

Show me the last for .
Show Coded

Time T Td Feel RH Dir Speed Gust Alt SLP Vis Weather Sky Remarks
2014-08-29 02:54 66 52 - 60 340° 7 - 30.06 30.06 0 None
2014-08-29 01:54 67 54 - 63 350° 8 - 30.05 30.05 0 6-hr Min Temp (2am): 66.9°F
6-hr Max Temp (2am): 73.0°F
2014-08-29 00:54 68 55 - 63 350° 8 - 30.04 30.04 0 24-hr Min Temp (1am): 68.0°F
24-hr Max Temp (1am): 82.0°F
2014-08-28 23:54 69 55 - 60 340° 9 - 30.01 30.01 0 None
2014-08-28 22:54 70 57 - 63 330° 9 - 30.00 30.00 0 None
2014-08-28 21:54 71 57 76 61 340° 9 - 29.99 29.98 0 None
2014-08-28 20:54 72 59 76 63 330° 9 - 29.96 29.96 0 None
2014-08-28 19:54 73 59 77 61 320° 7 - 29.93 29.93 0 6-hr Min Temp (8pm): 73.0°F
6-hr Max Temp (8pm): 82.0°F
2014-08-28 18:54 74 60 77 61 320° 9 - 29.90 29.90 0 None
2014-08-28 17:54 77 60 79 55 300° 8 - 29.88 29.88 0 None
2014-08-28 16:54 79 59 80 50 300° 9 - 29.86 29.85 0 None
2014-08-28 15:54 80 59 81 48 280° 7 - 29.84 29.84 0 None
2014-08-28 14:54 79 61 81 54 310° 9 - 29.84 29.84 0 None
2014-08-28 13:54 78 62 80 57 300° 9 - 29.84 29.84 0 6-hr Min Temp (2pm): 70.0°F
6-hr Max Temp (2pm): 80.1°F
2014-08-28 12:54 78 61 80 55 300° 10 - 29.84 29.83 0 None
2014-08-28 11:54 78 62 80 57 320° 7 - 29.84 29.84 0 None
2014-08-28 10:54 76 63 79 64 340° 8 - 29.85 29.84 0 None
2014-08-28 09:54 74 62 77 66 340° 7 - 29.85 29.85 0 None
2014-08-28 08:54 73 63 77 70 340° 9 - 29.84 29.84 0 None
2014-08-28 07:54 70 63 - 78 330° 8 - 29.84 29.84 0 6-hr Min Temp (8am): 69.1°F
6-hr Max Temp (8am): 73.0°F
2014-08-28 06:54 69 62 - 78 320° 7 - 29.83 29.83 0 None
2014-08-28 05:54 69 62 - 78 320° 7 - 29.83 29.83 0 None
2014-08-28 04:54 70 63 - 78 320° 7 - 29.82 29.82 0 None

Support USWX by starting your Amazon purchase here.